Wethersfield, Connecticut
Current Conditions -  °F | °C
As of 5:53 PM on Saturday 25 Oct 2014 (Local Time) from KHFD Reporting Station
Clear Clear  
Wind Chill: 62°   Ceiling: Unl
Heat Index: 62°   Visibility: 10mi
Dew Point: 41°   Wind: 12mph
Humidity: 46%   Direction: 220°SW
Pressure: 29.61"   Gusts: NA
Location:  41.71°N, 72.66°W
Report Text: KHFD 252153Z AUTO 22010KT 10SM CLR 17/05 A2961 RMK AO2 SLP028 T01670050
Loading
Personal Weather Stations






























Interactive Weather Map
Tropical Storm Tracking
New forecast layout! Learn more

10-Day Weather Forecast

Advertisements
Track Severe Weather on mobile